createdAt,value
2023-02-20T00:01:30.324Z,3.22
2023-02-20T00:03:57.063Z,3.17
2023-02-20T00:06:23.749Z,3.08
2023-02-20T00:08:50.368Z,3.35
2023-02-20T00:11:20.072Z,3.45
2023-02-20T00:13:47.722Z,2.92
2023-02-20T00:16:14.645Z,3.13
2023-02-20T00:18:41.558Z,3.25
2023-02-20T00:21:08.604Z,2.97
2023-02-20T00:23:35.588Z,3.13
2023-02-20T00:26:02.263Z,3.20
2023-02-20T00:28:30.046Z,3.25
2023-02-20T00:30:56.914Z,3.20
2023-02-20T00:33:23.811Z,3.38
2023-02-20T00:35:50.490Z,3.28
2023-02-20T00:38:17.181Z,3.45
2023-02-20T00:40:43.863Z,3.42
2023-02-20T00:43:16.123Z,3.72
2023-02-20T00:45:42.834Z,3.00
2023-02-20T00:48:09.517Z,2.95
2023-02-20T00:50:36.209Z,3.67
2023-02-20T00:53:03.588Z,3.40
2023-02-20T00:55:30.232Z,3.72
2023-02-20T00:57:56.932Z,2.97
2023-02-20T01:00:27.413Z,3.60
2023-02-20T01:02:57.360Z,3.63
2023-02-20T01:05:24.540Z,3.80
2023-02-20T01:07:52.504Z,3.58
2023-02-20T01:10:19.139Z,4.00
2023-02-20T01:12:45.791Z,3.45
2023-02-20T01:15:14.573Z,3.10
2023-02-20T01:17:41.345Z,3.47
2023-02-20T01:20:08.948Z,3.20
2023-02-20T01:22:35.595Z,3.60
2023-02-20T01:25:02.304Z,3.75
2023-02-20T01:27:28.974Z,3.63
2023-02-20T01:29:55.687Z,3.60
2023-02-20T01:32:22.441Z,3.33
2023-02-20T01:34:49.082Z,3.08
2023-02-20T01:37:16.658Z,3.70
2023-02-20T01:39:43.383Z,4.72
2023-02-20T01:42:17.921Z,3.50
2023-02-20T01:44:44.875Z,3.47
2023-02-20T01:47:17.530Z,3.67
2023-02-20T01:49:48.770Z,3.20
2023-02-20T01:52:15.440Z,3.38
2023-02-20T01:54:43.853Z,3.78
2023-02-20T01:57:14.938Z,3.55
2023-02-20T01:59:42.684Z,3.10
2023-02-20T02:02:09.542Z,3.25
2023-02-20T02:04:37.664Z,3.50
2023-02-20T02:07:04.722Z,3.25
2023-02-20T02:09:56.210Z,3.75
2023-02-20T02:12:23.146Z,3.70
2023-02-20T02:14:49.930Z,3.55
2023-02-20T02:17:50.473Z,3.80
2023-02-20T02:20:19.986Z,3.78
2023-02-20T02:23:03.359Z,3.80
2023-02-20T02:25:48.405Z,3.83
2023-02-20T02:28:52.899Z,4.40
2023-02-20T02:31:46.259Z,4.22
2023-02-20T02:34:43.917Z,4.13
2023-02-20T02:37:20.892Z,4.05
2023-02-20T02:39:51.177Z,4.18
2023-02-20T02:42:28.956Z,4.18
2023-02-20T02:45:04.130Z,4.30
2023-02-20T02:47:49.441Z,4.40
2023-02-20T02:50:20.052Z,3.53
2023-02-20T02:52:49.265Z,4.60
2023-02-20T02:55:21.713Z,4.57
2023-02-20T02:57:48.383Z,4.50
2023-02-20T03:00:19.162Z,4.55
2023-02-20T03:03:16.630Z,4.32
2023-02-20T03:06:00.981Z,4.35
2023-02-20T03:08:45.954Z,4.32
2023-02-20T03:11:20.881Z,4.85
2023-02-20T03:14:11.530Z,4.85
2023-02-20T03:16:46.092Z,4.47
2023-02-20T03:19:14.150Z,4.13
2023-02-20T03:21:43.575Z,4.72
2023-02-20T03:24:11.744Z,5.05
2023-02-20T03:26:42.714Z,4.28
2023-02-20T03:29:32.321Z,4.15
2023-02-20T03:32:22.597Z,4.22
2023-02-20T03:35:11.330Z,4.47
2023-02-20T03:37:57.990Z,5.13
2023-02-20T03:40:43.796Z,5.18
2023-02-20T03:43:28.653Z,4.28
2023-02-20T03:46:03.508Z,4.68
2023-02-20T03:48:45.856Z,5.20
2023-02-20T03:51:14.164Z,4.50
2023-02-20T03:53:50.779Z,5.00
2023-02-20T03:56:21.375Z,5.40
2023-02-20T03:58:53.002Z,4.80
2023-02-20T04:01:22.394Z,4.10
2023-02-20T04:03:49.846Z,4.80
2023-02-20T04:06:17.476Z,4.90
2023-02-20T04:08:48.449Z,4.75
2023-02-20T04:11:19.711Z,5.18
2023-02-20T04:13:47.531Z,5.10
2023-02-20T04:16:14.644Z,4.90
2023-02-20T04:18:45.191Z,4.93
2023-02-20T04:21:20.124Z,5.15
2023-02-20T04:23:51.685Z,5.30
2023-02-20T04:26:20.327Z,5.72
2023-02-20T04:28:49.036Z,5.40
2023-02-20T04:31:18.080Z,5.32
2023-02-20T04:33:52.119Z,5.05
2023-02-20T04:36:22.100Z,5.00
2023-02-20T04:38:50.440Z,5.28
2023-02-20T04:41:20.561Z,5.65
2023-02-20T04:43:47.959Z,5.75
2023-02-20T04:46:15.486Z,5.30
2023-02-20T04:48:42.505Z,5.45
2023-02-20T04:51:09.525Z,5.53
2023-02-20T04:53:36.474Z,5.68
2023-02-20T04:56:03.167Z,5.85
2023-02-20T04:58:31.379Z,5.38
2023-02-20T05:01:04.540Z,5.55
2023-02-20T05:03:31.165Z,5.82
2023-02-20T05:05:57.811Z,5.72
2023-02-20T05:08:27.457Z,5.15
2023-02-20T05:10:54.162Z,6.32
2023-02-20T05:13:20.841Z,5.82
2023-02-20T05:15:47.516Z,6.07
2023-02-20T05:18:14.226Z,6.68
2023-02-20T05:20:59.743Z,5.80
2023-02-20T05:23:26.408Z,6.53
2023-02-20T05:25:54.988Z,6.30
2023-02-20T05:28:21.640Z,5.97
2023-02-20T05:30:48.370Z,5.78
2023-02-20T05:33:15.050Z,5.72
2023-02-20T05:35:41.946Z,5.90
2023-02-20T05:38:18.074Z,6.38
2023-02-20T05:40:44.760Z,6.70
2023-02-20T05:43:11.426Z,5.90
2023-02-20T05:45:38.089Z,6.32
2023-02-20T05:48:04.989Z,6.10
2023-02-20T05:50:31.694Z,6.32
2023-02-20T05:52:58.382Z,6.05
2023-02-20T05:55:25.027Z,5.53
2023-02-20T05:57:51.676Z,6.07
2023-02-20T06:00:18.981Z,6.07
2023-02-20T06:02:45.751Z,6.55
2023-02-20T06:05:12.452Z,6.40
2023-02-20T06:07:39.086Z,6.53
2023-02-20T06:10:06.212Z,7.28
2023-02-20T06:12:32.812Z,6.38
2023-02-20T06:14:59.455Z,6.43
2023-02-20T06:17:26.774Z,6.97
2023-02-20T06:19:53.397Z,6.53
2023-02-20T06:22:20.015Z,7.28
2023-02-20T06:24:47.537Z,7.20
2023-02-20T06:27:14.956Z,7.13
2023-02-20T06:29:41.578Z,7.47
2023-02-20T06:32:08.289Z,7.78
2023-02-20T06:34:35.136Z,7.93
2023-02-20T06:37:03.178Z,7.32
2023-02-20T06:39:30.657Z,8.20
2023-02-20T06:41:57.320Z,7.90
2023-02-20T06:44:24.068Z,8.48
2023-02-20T06:46:50.976Z,8.30
2023-02-20T06:49:17.627Z,8.43
2023-02-20T06:51:44.314Z,8.65
2023-02-20T06:54:12.837Z,8.95
2023-02-20T06:56:39.493Z,9.05
2023-02-20T06:59:07.268Z,9.65
2023-02-20T07:01:40.352Z,8.90
2023-02-20T07:04:16.506Z,8.65
2023-02-20T07:06:43.403Z,9.55
2023-02-20T07:09:10.035Z,9.05
2023-02-20T07:11:36.748Z,8.23
2023-02-20T07:14:03.375Z,9.77
2023-02-20T07:16:31.398Z,9.45
2023-02-20T07:18:58.278Z,9.40
2023-02-20T07:21:24.917Z,8.65
2023-02-20T07:23:51.654Z,8.68
2023-02-20T07:26:20.478Z,8.30
2023-02-20T07:28:47.252Z,7.60
2023-02-20T07:31:14.332Z,7.50
2023-02-20T07:33:43.090Z,7.00
2023-02-20T07:36:11.514Z,7.75
2023-02-20T07:38:38.557Z,7.03
2023-02-20T07:41:05.701Z,7.45
2023-02-20T07:43:32.663Z,6.53
2023-02-20T07:45:59.767Z,7.22
2023-02-20T07:48:26.481Z,7.30
2023-02-20T07:50:53.120Z,6.07
2023-02-20T07:53:21.323Z,6.82
2023-02-20T07:55:47.966Z,6.75
2023-02-20T07:58:14.921Z,6.38
2023-02-20T08:00:41.580Z,6.55
2023-02-20T08:03:08.215Z,6.05
2023-02-20T08:05:48.306Z,6.40
2023-02-20T08:08:16.499Z,6.47
2023-02-20T08:10:43.322Z,6.45
2023-02-20T08:13:10.058Z,6.00
2023-02-20T08:15:36.811Z,6.15
2023-02-20T08:18:07.825Z,6.15
2023-02-20T08:20:39.251Z,6.10
2023-02-20T08:23:06.562Z,6.32
2023-02-20T08:25:33.314Z,6.18
2023-02-20T08:27:59.938Z,5.82
2023-02-20T08:30:28.095Z,5.63
2023-02-20T08:32:55.510Z,5.72
2023-02-20T08:35:25.127Z,5.47
2023-02-20T08:37:52.091Z,5.60
2023-02-20T08:40:19.003Z,5.13
2023-02-20T08:42:45.774Z,5.15
2023-02-20T08:45:14.531Z,4.88
2023-02-20T08:47:41.493Z,5.30
2023-02-20T08:50:08.304Z,4.90
2023-02-20T08:52:35.006Z,5.47
2023-02-20T08:55:05.044Z,5.35
2023-02-20T08:57:31.867Z,5.07
2023-02-20T08:59:58.797Z,4.40
2023-02-20T09:02:28.916Z,4.90
2023-02-20T09:04:56.653Z,4.25
2023-02-20T09:07:24.149Z,4.20
2023-02-20T09:09:53.728Z,3.78
2023-02-20T09:12:20.565Z,4.38
2023-02-20T09:14:47.387Z,4.22
2023-02-20T09:17:14.323Z,4.35
2023-02-20T09:19:41.131Z,4.25
2023-02-20T09:22:07.908Z,4.22
2023-02-20T09:24:34.629Z,4.32
2023-02-20T09:27:02.192Z,3.88
2023-02-20T09:29:29.119Z,4.47
2023-02-20T09:31:57.048Z,4.22
2023-02-20T09:34:24.462Z,5.22
2023-02-20T09:36:51.294Z,3.67
2023-02-20T09:39:21.085Z,3.70
2023-02-20T09:42:04.686Z,3.63
2023-02-20T09:44:46.966Z,3.88
2023-02-20T09:47:31.437Z,3.63
2023-02-20T09:50:04.294Z,3.65
2023-02-20T09:52:35.185Z,3.35
2023-02-20T09:55:06.177Z,3.80
2023-02-20T09:57:36.112Z,3.35
2023-02-20T10:00:14.427Z,3.90
2023-02-20T10:02:45.454Z,3.72
2023-02-20T10:05:27.354Z,3.45
2023-02-20T10:07:54.331Z,3.88
2023-02-20T10:10:25.744Z,3.50
2023-02-20T10:13:17.075Z,3.30
2023-02-20T10:15:55.814Z,3.88
2023-02-20T10:18:50.645Z,3.85
2023-02-20T10:21:42.173Z,3.13
2023-02-20T10:24:39.580Z,3.38
2023-02-20T10:27:12.218Z,3.40
2023-02-20T10:29:39.699Z,3.15
2023-02-20T10:32:10.208Z,3.20
2023-02-20T10:34:44.281Z,3.35
2023-02-20T10:37:14.796Z,3.50
2023-02-20T10:39:48.383Z,3.58
2023-02-20T10:42:23.342Z,3.17
2023-02-20T10:45:06.743Z,4.18
2023-02-20T10:47:59.804Z,3.38
2023-02-20T10:50:34.290Z,3.13
2023-02-20T10:53:13.788Z,3.90
2023-02-20T10:55:49.012Z,3.28
2023-02-20T10:58:24.099Z,3.40
2023-02-20T11:01:11.990Z,3.13
2023-02-20T11:03:54.010Z,3.17
2023-02-20T11:06:23.773Z,3.90
2023-02-20T11:08:50.471Z,4.20
2023-02-20T11:11:26.258Z,3.55
2023-02-20T11:13:53.998Z,4.07
2023-02-20T11:16:23.862Z,3.67
2023-02-20T11:19:03.961Z,3.63
2023-02-20T11:21:40.555Z,2.95
2023-02-20T11:24:28.341Z,3.63
2023-02-20T11:26:58.646Z,3.25
2023-02-20T11:29:25.938Z,3.92
2023-02-20T11:31:52.701Z,3.05
2023-02-20T11:34:23.289Z,3.60
2023-02-20T11:36:52.741Z,4.55
2023-02-20T11:39:21.161Z,3.70
2023-02-20T11:41:50.622Z,3.58
2023-02-20T11:44:21.541Z,3.65
2023-02-20T11:47:08.740Z,3.67
2023-02-20T11:49:35.469Z,4.35
2023-02-20T11:52:22.541Z,4.07
2023-02-20T11:55:10.040Z,4.13
2023-02-20T11:57:43.524Z,4.07
2023-02-20T12:00:26.498Z,4.43
2023-02-20T12:03:12.861Z,4.05
2023-02-20T12:05:47.728Z,4.05
2023-02-20T12:08:20.513Z,4.93
2023-02-20T12:10:48.484Z,4.45
2023-02-20T12:13:16.982Z,4.05
2023-02-20T12:15:48.690Z,4.60
2023-02-20T12:18:22.676Z,4.53
2023-02-20T12:21:20.422Z,4.60
2023-02-20T12:24:25.652Z,4.18
2023-02-20T12:26:59.417Z,4.22
2023-02-20T12:29:33.446Z,4.95
2023-02-20T12:32:22.857Z,5.20
2023-02-20T12:35:21.147Z,5.53
2023-02-20T12:38:15.546Z,4.95
2023-02-20T12:40:47.217Z,5.45
2023-02-20T12:43:23.565Z,5.65
2023-02-20T12:46:10.803Z,6.00
2023-02-20T12:48:56.643Z,5.82
2023-02-20T12:51:33.689Z,6.50
2023-02-20T12:54:32.771Z,6.82
2023-02-20T12:57:23.892Z,6.93
2023-02-20T13:00:01.804Z,7.03
2023-02-20T13:02:45.386Z,7.95
2023-02-20T13:05:14.630Z,7.85
2023-02-20T13:07:47.219Z,8.40
2023-02-20T13:10:30.547Z,7.78
2023-02-20T13:12:57.374Z,7.68
2023-02-20T13:15:37.036Z,8.48
2023-02-20T13:18:20.974Z,8.50
2023-02-20T13:20:50.378Z,8.48
2023-02-20T13:23:16.938Z,8.57
2023-02-20T13:25:45.832Z,9.05
2023-02-20T13:28:12.477Z,9.32
2023-02-20T13:30:40.199Z,9.27
2023-02-20T13:33:19.191Z,9.40
2023-02-20T13:35:55.356Z,8.32
2023-02-20T13:38:24.333Z,8.85
2023-02-20T13:40:57.016Z,9.75
2023-02-20T13:43:23.623Z,8.85
2023-02-20T13:46:17.909Z,10.07
2023-02-20T13:48:53.042Z,10.82
2023-02-20T13:51:21.605Z,10.20
2023-02-20T13:53:50.020Z,9.38
2023-02-20T13:56:23.231Z,10.15
2023-02-20T13:58:51.181Z,9.55
2023-02-20T14:01:17.914Z,9.73
2023-02-20T14:03:44.612Z,11.00
2023-02-20T14:06:18.857Z,9.88
2023-02-20T14:08:47.808Z,10.35
2023-02-20T14:11:35.385Z,10.40
2023-02-20T14:14:08.475Z,10.15
2023-02-20T14:16:41.394Z,10.73
2023-02-20T14:19:15.520Z,9.10
2023-02-20T14:21:47.962Z,9.70
2023-02-20T14:24:24.331Z,9.50
2023-02-20T14:26:56.328Z,9.45
2023-02-20T14:29:35.241Z,9.00
2023-02-20T14:32:06.628Z,8.52
2023-02-20T14:35:02.857Z,8.32
2023-02-20T14:37:48.246Z,8.52
2023-02-20T14:40:33.470Z,9.00
2023-02-20T14:43:01.536Z,8.50
2023-02-20T14:45:29.064Z,8.18
2023-02-20T14:48:00.961Z,8.25
2023-02-20T14:50:30.152Z,7.97
2023-02-20T14:53:10.073Z,7.78
2023-02-20T14:55:36.689Z,7.90
2023-02-20T14:58:19.277Z,8.32
2023-02-20T15:00:48.887Z,8.25
2023-02-20T15:03:31.060Z,8.30
2023-02-20T15:06:06.334Z,7.80
2023-02-20T15:08:36.032Z,7.45
2023-02-20T15:11:09.630Z,7.68
2023-02-20T15:13:39.950Z,7.07
2023-02-20T15:16:08.816Z,7.18
2023-02-20T15:18:44.079Z,7.28
2023-02-20T15:21:13.146Z,7.55
2023-02-20T15:23:42.234Z,7.18
2023-02-20T15:26:34.881Z,6.78
2023-02-20T15:29:22.737Z,6.97
2023-02-20T15:32:06.824Z,7.70
2023-02-20T15:34:37.944Z,7.80
2023-02-20T15:37:38.253Z,7.80
2023-02-20T15:40:25.104Z,8.27
2023-02-20T15:42:58.535Z,7.57
2023-02-20T15:45:27.423Z,7.90
2023-02-20T15:47:54.780Z,7.65
2023-02-20T15:50:21.772Z,7.10
2023-02-20T15:52:48.868Z,7.75
2023-02-20T15:55:20.866Z,7.45
2023-02-20T15:57:48.731Z,7.25
2023-02-20T16:00:31.516Z,7.50
2023-02-20T16:02:59.008Z,6.68
2023-02-20T16:05:25.871Z,8.02
2023-02-20T16:07:52.941Z,8.70
2023-02-20T16:10:22.873Z,7.03
2023-02-20T16:12:51.428Z,7.13
2023-02-20T16:15:21.554Z,7.55
2023-02-20T16:17:51.676Z,7.50
2023-02-20T16:20:28.827Z,6.53
2023-02-20T16:22:55.668Z,6.85
2023-02-20T16:25:23.597Z,6.70
2023-02-20T16:27:54.435Z,5.93
2023-02-20T16:30:33.808Z,6.60
2023-02-20T16:33:02.654Z,6.55
2023-02-20T16:35:29.408Z,6.32
2023-02-20T16:37:56.073Z,6.70
2023-02-20T16:40:23.811Z,6.60
2023-02-20T16:42:50.498Z,7.43
2023-02-20T16:45:19.269Z,6.60
2023-02-20T16:47:50.116Z,6.97
2023-02-20T16:50:20.819Z,6.93
2023-02-20T16:52:49.636Z,6.88
2023-02-20T16:55:20.783Z,7.07
2023-02-20T16:57:47.503Z,7.43
2023-02-20T17:00:16.466Z,6.63
2023-02-20T17:02:43.535Z,6.72
2023-02-20T17:05:10.365Z,6.82
2023-02-20T17:07:37.458Z,7.43
2023-02-20T17:10:06.074Z,6.97
2023-02-20T17:12:36.937Z,6.82
2023-02-20T17:15:05.236Z,6.22
2023-02-20T17:17:33.404Z,6.05
2023-02-20T17:20:00.588Z,6.43
2023-02-20T17:22:27.652Z,6.18
2023-02-20T17:24:54.886Z,5.72
2023-02-20T17:27:22.140Z,6.05
2023-02-20T17:29:48.952Z,6.78
2023-02-20T17:32:16.176Z,6.25
2023-02-20T17:34:43.650Z,6.32
2023-02-20T17:37:10.772Z,6.45
2023-02-20T17:39:37.727Z,6.85
2023-02-20T17:42:04.451Z,6.40
2023-02-20T17:44:31.589Z,6.75
2023-02-20T17:47:01.904Z,6.38
2023-02-20T17:49:28.818Z,6.25
2023-02-20T17:52:00.420Z,6.75
2023-02-20T17:54:29.423Z,6.90
2023-02-20T17:56:56.239Z,6.53
2023-02-20T17:59:27.570Z,6.82
2023-02-20T18:01:54.720Z,7.80
2023-02-20T18:04:21.806Z,7.53
2023-02-20T18:06:48.823Z,6.90
2023-02-20T18:09:17.611Z,7.10
2023-02-20T18:11:44.844Z,7.63
2023-02-20T18:14:12.095Z,8.45
2023-02-20T18:16:42.394Z,8.07
2023-02-20T18:19:10.659Z,7.68
2023-02-20T18:21:40.674Z,7.32
2023-02-20T18:24:08.088Z,8.25
2023-02-20T18:26:35.010Z,7.72
2023-02-20T18:29:01.869Z,7.70
2023-02-20T18:31:28.833Z,7.68
2023-02-20T18:33:57.099Z,7.80
2023-02-20T18:36:26.340Z,8.55
2023-02-20T18:38:53.092Z,8.80
2023-02-20T18:41:23.092Z,8.10
2023-02-20T18:43:49.777Z,8.18
2023-02-20T18:46:34.026Z,9.30
2023-02-20T18:49:02.372Z,8.32
2023-02-20T18:51:31.209Z,8.73
2023-02-20T18:53:58.065Z,9.23
2023-02-20T18:56:25.211Z,9.85
2023-02-20T18:58:52.504Z,10.68
2023-02-20T19:01:22.297Z,9.82
2023-02-20T19:03:51.183Z,10.05
2023-02-20T19:06:28.308Z,11.38
2023-02-20T19:08:55.661Z,11.25
2023-02-20T19:11:22.771Z,11.35
2023-02-20T19:13:49.494Z,11.52
2023-02-20T19:16:16.921Z,10.27
2023-02-20T19:18:50.381Z,11.40
2023-02-20T19:21:18.899Z,10.20
2023-02-20T19:23:46.423Z,10.57
2023-02-20T19:26:13.659Z,11.70
2023-02-20T19:28:42.352Z,11.15
2023-02-20T19:31:10.806Z,12.32
2023-02-20T19:33:37.595Z,11.90
2023-02-20T19:36:05.127Z,10.60
2023-02-20T19:38:35.498Z,10.60
2023-02-20T19:41:02.308Z,10.07
2023-02-20T19:43:32.250Z,9.95
2023-02-20T19:45:59.057Z,10.48
2023-02-20T19:48:28.133Z,9.85
2023-02-20T19:50:56.363Z,9.32
2023-02-20T19:53:26.127Z,9.18
2023-02-20T19:55:54.661Z,9.35
2023-02-20T19:58:21.609Z,9.63
2023-02-20T20:00:48.385Z,9.57
2023-02-20T20:03:15.230Z,9.45
2023-02-20T20:05:42.172Z,9.13
2023-02-20T20:08:08.943Z,8.65
2023-02-20T20:10:35.629Z,8.73
2023-02-20T20:13:02.435Z,9.38
2023-02-20T20:15:29.719Z,8.90
2023-02-20T20:17:59.701Z,9.57
2023-02-20T20:20:27.633Z,9.52
2023-02-20T20:22:55.887Z,9.48
2023-02-20T20:25:23.526Z,9.13
2023-02-20T20:27:54.690Z,8.00
2023-02-20T20:30:24.425Z,8.18
2023-02-20T20:32:51.829Z,7.60
2023-02-20T20:35:20.168Z,7.32
2023-02-20T20:37:46.941Z,7.28
2023-02-20T20:40:17.121Z,7.70
2023-02-20T20:42:44.216Z,7.82
2023-02-20T20:45:12.658Z,8.18
2023-02-20T20:47:40.726Z,7.20
2023-02-20T20:50:16.355Z,7.13
2023-02-20T20:52:43.021Z,7.03
2023-02-20T20:55:10.160Z,6.93
2023-02-20T20:57:38.062Z,6.18
2023-02-20T21:00:07.620Z,6.63
2023-02-20T21:02:34.657Z,6.35
2023-02-20T21:05:10.346Z,5.97
2023-02-20T21:07:38.926Z,6.45
2023-02-20T21:10:06.576Z,5.32
2023-02-20T21:12:33.191Z,5.60
2023-02-20T21:15:07.465Z,5.80
2023-02-20T21:17:34.232Z,5.15
2023-02-20T21:20:04.643Z,5.30
2023-02-20T21:22:31.505Z,5.10
2023-02-20T21:24:58.363Z,5.88
2023-02-20T21:27:25.124Z,5.18
2023-02-20T21:29:52.530Z,5.30
2023-02-20T21:32:19.384Z,5.30
2023-02-20T21:34:46.684Z,5.15
2023-02-20T21:37:13.446Z,5.63
2023-02-20T21:39:40.173Z,5.35
2023-02-20T21:42:25.385Z,5.07
2023-02-20T21:44:52.136Z,5.65
2023-02-20T21:47:20.068Z,5.93
2023-02-20T21:49:48.499Z,5.93
2023-02-20T21:52:16.970Z,5.43
2023-02-20T21:54:48.668Z,5.53
2023-02-20T21:57:15.466Z,6.00
2023-02-20T21:59:42.168Z,5.55
2023-02-20T22:02:16.186Z,5.80
2023-02-20T22:04:42.857Z,5.82
2023-02-20T22:07:28.084Z,5.85
2023-02-20T22:10:13.438Z,6.13
2023-02-20T22:12:58.869Z,5.78
2023-02-20T22:15:44.373Z,6.00
2023-02-20T22:18:29.791Z,5.18
2023-02-20T22:21:15.392Z,5.50
2023-02-20T22:24:01.094Z,5.53
2023-02-20T22:26:46.543Z,5.38
2023-02-20T22:29:31.877Z,5.70
2023-02-20T22:32:17.539Z,4.90
2023-02-20T22:35:12.114Z,4.78
2023-02-20T22:37:58.045Z,4.72
2023-02-20T22:40:43.337Z,5.13
2023-02-20T22:43:28.790Z,5.47
2023-02-20T22:46:13.857Z,4.82
2023-02-20T22:48:59.358Z,5.70
2023-02-20T22:51:47.780Z,5.10
2023-02-20T22:54:33.608Z,5.50
2023-02-20T22:57:19.092Z,5.60
2023-02-20T23:00:04.296Z,5.10
2023-02-20T23:02:51.081Z,5.10
2023-02-20T23:05:36.352Z,5.65
2023-02-20T23:08:21.616Z,5.57
2023-02-20T23:11:07.042Z,5.47
2023-02-20T23:13:52.239Z,5.63
2023-02-20T23:16:40.006Z,5.55
2023-02-20T23:19:27.468Z,6.57
2023-02-20T23:22:13.955Z,5.70
2023-02-20T23:24:59.236Z,6.30
2023-02-20T23:27:44.566Z,5.82
2023-02-20T23:30:30.466Z,5.88
2023-02-20T23:33:15.877Z,7.05
2023-02-20T23:36:01.160Z,6.53
2023-02-20T23:38:46.551Z,6.70
2023-02-20T23:41:32.046Z,6.88
2023-02-20T23:44:17.383Z,7.45
2023-02-20T23:47:04.713Z,7.30
2023-02-20T23:49:50.020Z,7.63
2023-02-20T23:52:35.329Z,7.18
2023-02-20T23:55:20.714Z,7.97
2023-02-20T23:58:06.063Z,7.03
